sensor_id;sensor_type;location;lat;lon;timestamp;pressure;altitude;pressure_sealevel;temperature;humidity
63097;BME280;49185;42.320;23.198;2022-09-09T00:00:14;94928.97;;;13.72;100.00
63097;BME280;49185;42.320;23.198;2022-09-09T00:02:45;94942.16;;;13.94;100.00
63097;BME280;49185;42.320;23.198;2022-09-09T00:07:47;94919.47;;;13.87;100.00
63097;BME280;49185;42.320;23.198;2022-09-09T00:10:37;94917.56;;;13.84;100.00
63097;BME280;49185;42.320;23.198;2022-09-09T00:13:22;94913.72;;;13.59;100.00
63097;BME280;49185;42.320;23.198;2022-09-09T00:16:22;94914.66;;;13.45;100.00
63097;BME280;49185;42.320;23.198;2022-09-09T00:21:18;94913.34;;;13.30;100.00
63097;BME280;49185;42.320;23.198;2022-09-09T00:23:53;94916.25;;;13.12;100.00
63097;BME280;49185;42.320;23.198;2022-09-09T00:26:53;94909.41;;;13.04;100.00
63097;BME280;49185;42.320;23.198;2022-09-09T00:29:37;94910.03;;;13.18;100.00
63097;BME280;49185;42.320;23.198;2022-09-09T00:32:32;94910.63;;;13.30;100.00
63097;BME280;49185;42.320;23.198;2022-09-09T00:35:24;94904.88;;;13.28;100.00
63097;BME280;49185;42.320;23.198;2022-09-09T00:37:48;94898.47;;;13.14;100.00
63097;BME280;49185;42.320;23.198;2022-09-09T00:40:32;94888.47;;;13.15;100.00
63097;BME280;49185;42.320;23.198;2022-09-09T00:48:08;94884.56;;;13.19;100.00
63097;BME280;49185;42.320;23.198;2022-09-09T00:50:56;94868.06;;;13.10;100.00
63097;BME280;49185;42.320;23.198;2022-09-09T00:56:13;94880.22;;;13.26;100.00
63097;BME280;49185;42.320;23.198;2022-09-09T00:58:38;94882.38;;;13.07;100.00
63097;BME280;49185;42.320;23.198;2022-09-09T01:01:09;94886.78;;;12.94;100.00
63097;BME280;49185;42.320;23.198;2022-09-09T01:03:37;94895.41;;;13.16;100.00
63097;BME280;49185;42.320;23.198;2022-09-09T01:06:16;94893.47;;;13.16;100.00
63097;BME280;49185;42.320;23.198;2022-09-09T01:14:18;94886.53;;;12.85;100.00
63097;BME280;49185;42.320;23.198;2022-09-09T01:16:48;94892.47;;;13.03;100.00
63097;BME280;49185;42.320;23.198;2022-09-09T01:19:24;94891.91;;;12.85;100.00
63097;BME280;49185;42.320;23.198;2022-09-09T01:22:02;94899.53;;;12.90;100.00
63097;BME280;49185;42.320;23.198;2022-09-09T01:24:45;94904.72;;;12.77;100.00
63097;BME280;49185;42.320;23.198;2022-09-09T01:27:19;94923.94;;;13.17;100.00
63097;BME280;49185;42.320;23.198;2022-09-09T01:29:46;94923.69;;;13.35;100.00
63097;BME280;49185;42.320;23.198;2022-09-09T01:32:41;94913.19;;;13.10;100.00
63097;BME280;49185;42.320;23.198;2022-09-09T01:35:11;94906.59;;;12.80;100.00
63097;BME280;49185;42.320;23.198;2022-09-09T01:37:38;94923.28;;;12.34;100.00
63097;BME280;49185;42.320;23.198;2022-09-09T01:40:04;94916.28;;;11.99;100.00
63097;BME280;49185;42.320;23.198;2022-09-09T01:42:30;94914.41;;;11.93;100.00
63097;BME280;49185;42.320;23.198;2022-09-09T01:44:55;94916.31;;;11.96;100.00
63097;BME280;49185;42.320;23.198;2022-09-09T01:47:21;94912.50;;;11.90;100.00
63097;BME280;49185;42.320;23.198;2022-09-09T01:49:46;94917.78;;;12.04;100.00
63097;BME280;49185;42.320;23.198;2022-09-09T01:52:12;94910.31;;;12.18;100.00
63097;BME280;49185;42.320;23.198;2022-09-09T01:54:37;94909.53;;;12.22;100.00
63097;BME280;49185;42.320;23.198;2022-09-09T01:57:25;94904.72;;;12.40;100.00
63097;BME280;49185;42.320;23.198;2022-09-09T02:02:32;94900.59;;;12.32;100.00
63097;BME280;49185;42.320;23.198;2022-09-09T02:07:58;94915.53;;;12.40;100.00
63097;BME280;49185;42.320;23.198;2022-09-09T02:13:04;94894.91;;;12.19;100.00
63097;BME280;49185;42.320;23.198;2022-09-09T02:18:32;94891.78;;;12.28;100.00
63097;BME280;49185;42.320;23.198;2022-09-09T02:21:00;94885.31;;;12.18;100.00
63097;BME280;49185;42.320;23.198;2022-09-09T02:23:28;94887.16;;;12.25;100.00
63097;BME280;49185;42.320;23.198;2022-09-09T02:25:55;94884.13;;;12.19;100.00
63097;BME280;49185;42.320;23.198;2022-09-09T02:28:25;94889.03;;;12.31;100.00
63097;BME280;49185;42.320;23.198;2022-09-09T02:30:52;94869.47;;;12.24;100.00
63097;BME280;49185;42.320;23.198;2022-09-09T02:33:17;94877.53;;;12.27;100.00
63097;BME280;49185;42.320;23.198;2022-09-09T02:35:44;94872.53;;;12.26;100.00
63097;BME280;49185;42.320;23.198;2022-09-09T02:38:13;94873.22;;;12.33;100.00
63097;BME280;49185;42.320;23.198;2022-09-09T02:40:40;94884.78;;;12.34;100.00
63097;BME280;49185;42.320;23.198;2022-09-09T02:43:06;94871.41;;;12.20;100.00
63097;BME280;49185;42.320;23.198;2022-09-09T02:45:43;94877.13;;;12.29;100.00
63097;BME280;49185;42.320;23.198;2022-09-09T02:48:19;94879.41;;;12.30;100.00
63097;BME280;49185;42.320;23.198;2022-09-09T02:51:08;94885.72;;;12.16;100.00
63097;BME280;49185;42.320;23.198;2022-09-09T02:56:18;94893.38;;;12.56;100.00
63097;BME280;49185;42.320;23.198;2022-09-09T02:58:46;94902.41;;;12.42;100.00
63097;BME280;49185;42.320;23.198;2022-09-09T03:01:12;94902.06;;;12.36;100.00
63097;BME280;49185;42.320;23.198;2022-09-09T03:03:37;94899.28;;;12.06;100.00
63097;BME280;49185;42.320;23.198;2022-09-09T03:06:03;94904.06;;;12.32;100.00
63097;BME280;49185;42.320;23.198;2022-09-09T03:08:29;94897.69;;;12.12;100.00
63097;BME280;49185;42.320;23.198;2022-09-09T03:10:54;94901.84;;;12.20;100.00
63097;BME280;49185;42.320;23.198;2022-09-09T03:13:20;94903.94;;;12.43;100.00
63097;BME280;49185;42.320;23.198;2022-09-09T03:15:47;94904.19;;;12.56;100.00
63097;BME280;49185;42.320;23.198;2022-09-09T03:18:13;94906.53;;;12.54;100.00
63097;BME280;49185;42.320;23.198;2022-09-09T03:20:38;94909.94;;;12.20;100.00
63097;BME280;49185;42.320;23.198;2022-09-09T03:23:04;94908.13;;;12.06;100.00
63097;BME280;49185;42.320;23.198;2022-09-09T03:25:29;94899.31;;;12.02;100.00
63097;BME280;49185;42.320;23.198;2022-09-09T03:27:55;94892.13;;;11.89;100.00
63097;BME280;49185;42.320;23.198;2022-09-09T03:30:22;94889.44;;;11.85;100.00
63097;BME280;49185;42.320;23.198;2022-09-09T03:32:47;94902.59;;;11.79;100.00
63097;BME280;49185;42.320;23.198;2022-09-09T03:35:13;94906.00;;;11.83;100.00
63097;BME280;49185;42.320;23.198;2022-09-09T03:37:39;94901.81;;;11.75;100.00
63097;BME280;49185;42.320;23.198;2022-09-09T03:40:04;94910.59;;;11.87;100.00
63097;BME280;49185;42.320;23.198;2022-09-09T03:42:30;94900.63;;;11.83;100.00
63097;BME280;49185;42.320;23.198;2022-09-09T03:44:55;94914.47;;;11.86;100.00
63097;BME280;49185;42.320;23.198;2022-09-09T03:47:21;94913.00;;;11.77;100.00
63097;BME280;49185;42.320;23.198;2022-09-09T03:49:47;94912.59;;;11.75;100.00
63097;BME280;49185;42.320;23.198;2022-09-09T03:52:13;94906.81;;;11.80;100.00
63097;BME280;49185;42.320;23.198;2022-09-09T03:54:39;94895.97;;;11.88;100.00
63097;BME280;49185;42.320;23.198;2022-09-09T03:57:04;94897.31;;;12.10;100.00
63097;BME280;49185;42.320;23.198;2022-09-09T03:59:30;94903.47;;;12.51;100.00
63097;BME280;49185;42.320;23.198;2022-09-09T04:01:55;94891.41;;;12.63;100.00
63097;BME280;49185;42.320;23.198;2022-09-09T04:04:21;94894.28;;;12.45;100.00
63097;BME280;49185;42.320;23.198;2022-09-09T04:06:46;94899.38;;;12.36;100.00
63097;BME280;49185;42.320;23.198;2022-09-09T04:09:12;94899.78;;;12.35;100.00
63097;BME280;49185;42.320;23.198;2022-09-09T04:11:37;94888.66;;;12.33;100.00
63097;BME280;49185;42.320;23.198;2022-09-09T04:14:03;94899.81;;;12.31;100.00
63097;BME280;49185;42.320;23.198;2022-09-09T04:16:28;94895.97;;;12.32;100.00
63097;BME280;49185;42.320;23.198;2022-09-09T04:18:54;94888.06;;;12.52;100.00
63097;BME280;49185;42.320;23.198;2022-09-09T04:21:19;94892.22;;;12.57;100.00
63097;BME280;49185;42.320;23.198;2022-09-09T04:23:44;94882.13;;;12.64;100.00
63097;BME280;49185;42.320;23.198;2022-09-09T04:26:10;94891.16;;;12.84;100.00
63097;BME280;49185;42.320;23.198;2022-09-09T04:28:36;94896.78;;;12.97;100.00
63097;BME280;49185;42.320;23.198;2022-09-09T04:31:15;94900.03;;;13.15;100.00
63097;BME280;49185;42.320;23.198;2022-09-09T04:33:40;94895.25;;;13.27;100.00
63097;BME280;49185;42.320;23.198;2022-09-09T04:36:07;94900.53;;;13.37;100.00
63097;BME280;49185;42.320;23.198;2022-09-09T04:38:32;94889.47;;;13.55;100.00
63097;BME280;49185;42.320;23.198;2022-09-09T04:40:58;94901.88;;;14.22;100.00
63097;BME280;49185;42.320;23.198;2022-09-09T04:43:23;94899.13;;;14.49;100.00
63097;BME280;49185;42.320;23.198;2022-09-09T04:45:50;94898.59;;;14.78;100.00
63097;BME280;49185;42.320;23.198;2022-09-09T04:48:15;94896.66;;;14.98;100.00
63097;BME280;49185;42.320;23.198;2022-09-09T04:50:41;94910.22;;;15.70;100.00
63097;BME280;49185;42.320;23.198;2022-09-09T04:53:07;94922.94;;;15.89;100.00
63097;BME280;49185;42.320;23.198;2022-09-09T04:55:34;94924.41;;;16.10;100.00
63097;BME280;49185;42.320;23.198;2022-09-09T04:58:03;94927.69;;;16.02;100.00
63097;BME280;49185;42.320;23.198;2022-09-09T05:00:29;94923.91;;;15.63;100.00
63097;BME280;49185;42.320;23.198;2022-09-09T05:02:54;94918.91;;;15.25;100.00
63097;BME280;49185;42.320;23.198;2022-09-09T05:05:20;94927.09;;;14.63;100.00
63097;BME280;49185;42.320;23.198;2022-09-09T05:07:45;94919.25;;;14.88;100.00
63097;BME280;49185;42.320;23.198;2022-09-09T05:10:10;94899.94;;;15.06;100.00
63097;BME280;49185;42.320;23.198;2022-09-09T05:12:36;94890.28;;;15.24;100.00
63097;BME280;49185;42.320;23.198;2022-09-09T05:15:01;94886.59;;;15.35;100.00
63097;BME280;49185;42.320;23.198;2022-09-09T05:17:27;94892.56;;;15.62;100.00
63097;BME280;49185;42.320;23.198;2022-09-09T05:19:52;94888.38;;;16.10;100.00
63097;BME280;49185;42.320;23.198;2022-09-09T05:22:19;94881.03;;;17.64;100.00
63097;BME280;49185;42.320;23.198;2022-09-09T05:24:45;94871.16;;;18.86;100.00
63097;BME280;49185;42.320;23.198;2022-09-09T05:27:10;94865.63;;;20.41;100.00
63097;BME280;49185;42.320;23.198;2022-09-09T05:29:36;94869.78;;;21.42;100.00
63097;BME280;49185;42.320;23.198;2022-09-09T05:32:01;94868.00;;;21.30;100.00
63097;BME280;49185;42.320;23.198;2022-09-09T05:34:27;94870.25;;;21.74;100.00
63097;BME280;49185;42.320;23.198;2022-09-09T05:36:52;94862.41;;;21.67;100.00
63097;BME280;49185;42.320;23.198;2022-09-09T05:39:17;94849.66;;;22.21;100.00
63097;BME280;49185;42.320;23.198;2022-09-09T05:41:43;94870.16;;;23.56;100.00
63097;BME280;49185;42.320;23.198;2022-09-09T05:44:09;94863.09;;;25.52;64.88
63097;BME280;49185;42.320;23.198;2022-09-09T05:46:34;94860.91;;;25.93;61.91
63097;BME280;49185;42.320;23.198;2022-09-09T05:49:02;94862.94;;;25.09;66.59
63097;BME280;49185;42.320;23.198;2022-09-09T05:51:28;94860.75;;;25.71;63.65
63097;BME280;49185;42.320;23.198;2022-09-09T05:53:54;94865.94;;;26.32;61.36
63097;BME280;49185;42.320;23.198;2022-09-09T05:56:23;94875.16;;;26.28;59.65
63097;BME280;49185;42.320;23.198;2022-09-09T05:58:49;94876.03;;;25.46;65.11
63097;BME280;49185;42.320;23.198;2022-09-09T06:01:21;94883.38;;;25.54;64.40
63097;BME280;49185;42.320;23.198;2022-09-09T06:03:48;94880.91;;;23.30;75.07
63097;BME280;49185;42.320;23.198;2022-09-09T06:06:16;94873.97;;;24.28;69.72
63097;BME280;49185;42.320;23.198;2022-09-09T06:08:43;94882.31;;;24.54;69.00
63097;BME280;49185;42.320;23.198;2022-09-09T06:11:12;94886.59;;;26.10;62.05
63097;BME280;49185;42.320;23.198;2022-09-09T06:13:38;94889.69;;;25.09;64.65
63097;BME280;49185;42.320;23.198;2022-09-09T06:16:04;94901.47;;;25.35;64.63
63097;BME280;49185;42.320;23.198;2022-09-09T06:18:30;94892.06;;;26.05;63.75
63097;BME280;49185;42.320;23.198;2022-09-09T06:21:01;94893.50;;;25.37;66.03
63097;BME280;49185;42.320;23.198;2022-09-09T06:23:27;94891.41;;;27.40;58.06
63097;BME280;49185;42.320;23.198;2022-09-09T06:26:14;94893.09;;;26.50;61.05
63097;BME280;49185;42.320;23.198;2022-09-09T06:28:40;94901.13;;;24.81;67.58
63097;BME280;49185;42.320;23.198;2022-09-09T06:31:08;94895.34;;;25.20;66.43
63097;BME280;49185;42.320;23.198;2022-09-09T06:33:35;94891.78;;;24.73;68.99
63097;BME280;49185;42.320;23.198;2022-09-09T06:36:02;94881.72;;;25.63;65.36
63097;BME280;49185;42.320;23.198;2022-09-09T06:38:28;94887.22;;;25.63;64.31
63097;BME280;49185;42.320;23.198;2022-09-09T06:40:54;94886.25;;;25.40;65.59
63097;BME280;49185;42.320;23.198;2022-09-09T06:43:20;94876.91;;;25.89;65.12
63097;BME280;49185;42.320;23.198;2022-09-09T06:48:20;94877.53;;;27.12;61.01
63097;BME280;49185;42.320;23.198;2022-09-09T06:50:45;94887.16;;;28.11;56.01
63097;BME280;49185;42.320;23.198;2022-09-09T06:53:11;94880.63;;;28.03;54.81
63097;BME280;49185;42.320;23.198;2022-09-09T06:55:36;94874.34;;;28.99;52.30
63097;BME280;49185;42.320;23.198;2022-09-09T06:58:02;94883.56;;;27.16;56.86
63097;BME280;49185;42.320;23.198;2022-09-09T07:00:32;94889.69;;;28.09;54.79
63097;BME280;49185;42.320;23.198;2022-09-09T07:02:58;94894.38;;;27.25;57.52
63097;BME280;49185;42.320;23.198;2022-09-09T07:05:23;94897.88;;;28.65;52.67
63097;BME280;49185;42.320;23.198;2022-09-09T07:07:50;94897.59;;;29.67;47.49
63097;BME280;49185;42.320;23.198;2022-09-09T07:10:15;94886.56;;;28.57;51.44
63097;BME280;49185;42.320;23.198;2022-09-09T07:12:41;94885.19;;;27.73;55.07
63097;BME280;49185;42.320;23.198;2022-09-09T07:15:06;94879.47;;;29.66;49.06
63097;BME280;49185;42.320;23.198;2022-09-09T07:17:32;94888.09;;;30.23;46.59
63097;BME280;49185;42.320;23.198;2022-09-09T07:19:57;94889.94;;;27.89;54.05
63097;BME280;49185;42.320;23.198;2022-09-09T07:22:23;94870.56;;;29.38;48.37
63097;BME280;49185;42.320;23.198;2022-09-09T07:24:48;94868.31;;;30.56;45.58
63097;BME280;49185;42.320;23.198;2022-09-09T07:27:14;94862.47;;;30.11;45.82
63097;BME280;49185;42.320;23.198;2022-09-09T07:29:39;94869.59;;;30.07;46.44
63097;BME280;49185;42.320;23.198;2022-09-09T07:32:04;94875.19;;;28.83;49.67
63097;BME280;49185;42.320;23.198;2022-09-09T07:34:30;94869.56;;;28.25;51.07
63097;BME280;49185;42.320;23.198;2022-09-09T07:36:55;94864.09;;;28.78;48.78
63097;BME280;49185;42.320;23.198;2022-09-09T07:39:21;94861.81;;;31.16;43.23
63097;BME280;49185;42.320;23.198;2022-09-09T07:41:47;94862.94;;;30.15;44.99
63097;BME280;49185;42.320;23.198;2022-09-09T07:44:18;94856.75;;;27.50;52.59
63097;BME280;49185;42.320;23.198;2022-09-09T07:46:45;94865.03;;;28.28;51.68
63097;BME280;49185;42.320;23.198;2022-09-09T07:49:11;94860.28;;;27.78;52.26
63097;BME280;49185;42.320;23.198;2022-09-09T07:51:42;94865.00;;;27.16;53.50
63097;BME280;49185;42.320;23.198;2022-09-09T07:54:10;94859.50;;;27.22;53.64
63097;BME280;49185;42.320;23.198;2022-09-09T07:56:38;94864.47;;;27.07;54.28
63097;BME280;49185;42.320;23.198;2022-09-09T07:59:04;94857.28;;;27.71;53.30
63097;BME280;49185;42.320;23.198;2022-09-09T08:01:40;94863.56;;;28.85;50.90
63097;BME280;49185;42.320;23.198;2022-09-09T08:04:11;94863.31;;;27.58;53.60
63097;BME280;49185;42.320;23.198;2022-09-09T08:06:39;94863.22;;;26.43;59.00
63097;BME280;49185;42.320;23.198;2022-09-09T08:09:07;94870.84;;;26.70;56.87
63097;BME280;49185;42.320;23.198;2022-09-09T08:11:33;94858.72;;;26.45;57.81
63097;BME280;49185;42.320;23.198;2022-09-09T08:13:59;94871.47;;;25.37;61.77
63097;BME280;49185;42.320;23.198;2022-09-09T08:16:26;94863.31;;;24.97;66.12
63097;BME280;49185;42.320;23.198;2022-09-09T08:18:53;94859.94;;;25.07;65.06
63097;BME280;49185;42.320;23.198;2022-09-09T08:21:21;94853.41;;;25.62;61.74
63097;BME280;49185;42.320;23.198;2022-09-09T08:23:47;94847.34;;;26.86;59.47
63097;BME280;49185;42.320;23.198;2022-09-09T08:26:15;94856.19;;;25.99;61.54
63097;BME280;49185;42.320;23.198;2022-09-09T08:28:42;94858.38;;;25.01;66.42
63097;BME280;49185;42.320;23.198;2022-09-09T08:31:16;94858.38;;;24.60;67.62
63097;BME280;49185;42.320;23.198;2022-09-09T08:33:43;94848.47;;;26.51;60.92
63097;BME280;49185;42.320;23.198;2022-09-09T08:36:11;94862.00;;;25.70;65.14
63097;BME280;49185;42.320;23.198;2022-09-09T08:38:37;94864.34;;;24.79;66.94
63097;BME280;49185;42.320;23.198;2022-09-09T08:44:07;94860.34;;;25.00;66.10
63097;BME280;49185;42.320;23.198;2022-09-09T08:49:16;94868.00;;;27.13;58.56
63097;BME280;49185;42.320;23.198;2022-09-09T08:51:45;94865.69;;;26.94;58.52
63097;BME280;49185;42.320;23.198;2022-09-09T08:54:10;94861.66;;;28.57;51.28
63097;BME280;49185;42.320;23.198;2022-09-09T08:56:36;94854.72;;;28.97;52.05
63097;BME280;49185;42.320;23.198;2022-09-09T08:59:02;94856.94;;;29.05;51.55
63097;BME280;49185;42.320;23.198;2022-09-09T09:04:41;94856.19;;;26.95;58.19
63097;BME280;49185;42.320;23.198;2022-09-09T09:12:40;94860.16;;;26.35;58.74
63097;BME280;49185;42.320;23.198;2022-09-09T09:15:36;94859.31;;;26.18;60.26
63097;BME280;49185;42.320;23.198;2022-09-09T09:18:05;94848.47;;;26.51;59.03
63097;BME280;49185;42.320;23.198;2022-09-09T09:20:45;94857.50;;;27.34;55.75
63097;BME280;49185;42.320;23.198;2022-09-09T09:23:21;94853.78;;;27.64;53.16
63097;BME280;49185;42.320;23.198;2022-09-09T09:25:47;94849.47;;;27.41;53.29
63097;BME280;49185;42.320;23.198;2022-09-09T09:28:14;94853.22;;;28.05;52.60
63097;BME280;49185;42.320;23.198;2022-09-09T09:30:46;94850.13;;;28.48;51.19
63097;BME280;49185;42.320;23.198;2022-09-09T09:33:29;94855.38;;;28.57;50.28
63097;BME280;49185;42.320;23.198;2022-09-09T09:35:57;94842.97;;;27.67;53.45
63097;BME280;49185;42.320;23.198;2022-09-09T09:38:24;94842.19;;;27.94;52.44
63097;BME280;49185;42.320;23.198;2022-09-09T09:40:56;94846.69;;;27.13;55.98
63097;BME280;49185;42.320;23.198;2022-09-09T09:43:26;94838.16;;;27.34;55.01
63097;BME280;49185;42.320;23.198;2022-09-09T09:45:52;94848.72;;;27.35;55.38
63097;BME280;49185;42.320;23.198;2022-09-09T09:48:17;94839.44;;;27.38;56.09
63097;BME280;49185;42.320;23.198;2022-09-09T09:50:51;94834.88;;;27.13;57.64
63097;BME280;49185;42.320;23.198;2022-09-09T09:53:32;94829.94;;;26.09;61.87
63097;BME280;49185;42.320;23.198;2022-09-09T09:56:05;94819.09;;;25.94;61.53
63097;BME280;49185;42.320;23.198;2022-09-09T09:58:49;94823.00;;;26.84;60.05
63097;BME280;49185;42.320;23.198;2022-09-09T10:01:29;94818.81;;;27.28;54.75
63097;BME280;49185;42.320;23.198;2022-09-09T10:04:01;94820.38;;;27.68;54.17
63097;BME280;49185;42.320;23.198;2022-09-09T10:06:34;94824.88;;;27.60;53.12
63097;BME280;49185;42.320;23.198;2022-09-09T10:09:01;94832.66;;;27.34;56.43
63097;BME280;49185;42.320;23.198;2022-09-09T10:17:38;94842.22;;;26.51;58.44
63097;BME280;49185;42.320;23.198;2022-09-09T10:28:30;94835.06;;;26.27;58.87
63097;BME280;49185;42.320;23.198;2022-09-09T10:33:49;94836.31;;;26.86;58.55
63097;BME280;49185;42.320;23.198;2022-09-09T10:36:22;94845.97;;;27.85;55.07
63097;BME280;49185;42.320;23.198;2022-09-09T10:39:01;94842.69;;;27.53;54.54
63097;BME280;49185;42.320;23.198;2022-09-09T10:42:14;94841.03;;;26.69;59.49
63097;BME280;49185;42.320;23.198;2022-09-09T10:47:25;94838.75;;;26.19;64.98
63097;BME280;49185;42.320;23.198;2022-09-09T10:50:16;94840.19;;;26.46;61.34
63097;BME280;49185;42.320;23.198;2022-09-09T10:53:02;94838.59;;;26.34;62.93
63097;BME280;49185;42.320;23.198;2022-09-09T10:55:45;94843.53;;;26.18;64.53
63097;BME280;49185;42.320;23.198;2022-09-09T10:58:20;94837.44;;;26.51;62.28
63097;BME280;49185;42.320;23.198;2022-09-09T11:00:52;94845.88;;;26.96;61.17
63097;BME280;49185;42.320;23.198;2022-09-09T11:03:22;94854.19;;;26.42;64.53
63097;BME280;49185;42.320;23.198;2022-09-09T11:05:53;94859.94;;;26.33;64.71
63097;BME280;49185;42.320;23.198;2022-09-09T11:08:25;94852.63;;;26.84;64.21
63097;BME280;49185;42.320;23.198;2022-09-09T11:19:34;94860.53;;;27.86;58.19
63097;BME280;49185;42.320;23.198;2022-09-09T11:22:04;94839.81;;;26.81;61.56
63097;BME280;49185;42.320;23.198;2022-09-09T11:24:39;94852.47;;;26.45;63.50
63097;BME280;49185;42.320;23.198;2022-09-09T11:40:39;94818.31;;;28.82;53.00
63097;BME280;49185;42.320;23.198;2022-09-09T11:43:22;94819.09;;;29.18;53.97
63097;BME280;49185;42.320;23.198;2022-09-09T11:45:57;94813.41;;;30.00;51.57
63097;BME280;49185;42.320;23.198;2022-09-09T11:53:55;94794.97;;;27.25;61.32
63097;BME280;49185;42.320;23.198;2022-09-09T12:01:34;94798.50;;;27.76;59.79
63097;BME280;49185;42.320;23.198;2022-09-09T12:07:00;94794.66;;;26.84;63.70
63097;BME280;49185;42.320;23.198;2022-09-09T12:09:46;94796.22;;;27.80;59.08
63097;BME280;49185;42.320;23.198;2022-09-09T12:14:54;94793.16;;;28.06;59.14
63097;BME280;49185;42.320;23.198;2022-09-09T12:17:22;94785.22;;;27.35;62.20
63097;BME280;49185;42.320;23.198;2022-09-09T12:19:59;94781.69;;;27.01;60.27
63097;BME280;49185;42.320;23.198;2022-09-09T12:28:05;94774.16;;;27.24;62.33
63097;BME280;49185;42.320;23.198;2022-09-09T12:30:43;94772.00;;;28.30;58.26
63097;BME280;49185;42.320;23.198;2022-09-09T12:33:15;94782.69;;;27.54;62.01
63097;BME280;49185;42.320;23.198;2022-09-09T12:35:43;94776.66;;;27.33;61.65
63097;BME280;49185;42.320;23.198;2022-09-09T12:38:17;94782.56;;;26.59;64.26
63097;BME280;49185;42.320;23.198;2022-09-09T12:40:55;94780.97;;;26.30;66.51
63097;BME280;49185;42.320;23.198;2022-09-09T12:43:22;94782.03;;;26.55;67.05
63097;BME280;49185;42.320;23.198;2022-09-09T12:45:51;94777.25;;;26.44;65.83
63097;BME280;49185;42.320;23.198;2022-09-09T12:48:19;94776.34;;;26.81;64.52
63097;BME280;49185;42.320;23.198;2022-09-09T12:50:49;94770.88;;;27.25;61.21
63097;BME280;49185;42.320;23.198;2022-09-09T12:55:59;94774.72;;;26.41;67.53
63097;BME280;49185;42.320;23.198;2022-09-09T12:58:25;94771.72;;;26.39;66.22
63097;BME280;49185;42.320;23.198;2022-09-09T13:00:53;94772.88;;;26.15;69.20
63097;BME280;49185;42.320;23.198;2022-09-09T13:03:20;94766.91;;;25.80;70.82
63097;BME280;49185;42.320;23.198;2022-09-09T13:05:46;94767.03;;;25.59;69.30
63097;BME280;49185;42.320;23.198;2022-09-09T13:08:13;94764.66;;;25.78;69.78
63097;BME280;49185;42.320;23.198;2022-09-09T13:11:19;94766.13;;;26.27;66.72
63097;BME280;49185;42.320;23.198;2022-09-09T13:13:40;94764.91;;;25.43;72.81
63097;BME280;49185;42.320;23.198;2022-09-09T13:16:21;94763.19;;;25.51;71.01
63097;BME280;49185;42.320;23.198;2022-09-09T13:18:48;94764.19;;;25.17;72.89
63097;BME280;49185;42.320;23.198;2022-09-09T13:21:14;94760.34;;;25.72;70.47
63097;BME280;49185;42.320;23.198;2022-09-09T13:23:39;94757.78;;;25.63;70.18
63097;BME280;49185;42.320;23.198;2022-09-09T13:26:19;94750.97;;;25.95;73.02
63097;BME280;49185;42.320;23.198;2022-09-09T13:28:45;94751.47;;;24.93;86.80
63097;BME280;49185;42.320;23.198;2022-09-09T13:31:28;94754.59;;;24.29;89.58
63097;BME280;49185;42.320;23.198;2022-09-09T13:33:54;94752.44;;;23.98;95.58
63097;BME280;49185;42.320;23.198;2022-09-09T13:36:29;94748.78;;;24.07;92.31
63097;BME280;49185;42.320;23.198;2022-09-09T13:38:56;94744.59;;;24.11;89.71
63097;BME280;49185;42.320;23.198;2022-09-09T13:41:34;94750.50;;;24.04;94.58
63097;BME280;49185;42.320;23.198;2022-09-09T13:44:01;94744.25;;;24.04;93.58
63097;BME280;49185;42.320;23.198;2022-09-09T13:46:40;94735.50;;;23.65;94.40
63097;BME280;49185;42.320;23.198;2022-09-09T13:51:46;94732.38;;;23.72;95.48
63097;BME280;49185;42.320;23.198;2022-09-09T13:54:13;94722.78;;;23.82;97.92
63097;BME280;49185;42.320;23.198;2022-09-09T13:56:40;94721.34;;;25.05;88.98
63097;BME280;49185;42.320;23.198;2022-09-09T13:59:13;94716.38;;;24.83;88.52
63097;BME280;49185;42.320;23.198;2022-09-09T14:01:39;94716.81;;;24.50;93.15
63097;BME280;49185;42.320;23.198;2022-09-09T14:04:04;94717.88;;;24.58;92.17
63097;BME280;49185;42.320;23.198;2022-09-09T14:06:30;94707.16;;;24.60;90.94
63097;BME280;49185;42.320;23.198;2022-09-09T14:08:56;94700.78;;;24.74;87.87
63097;BME280;49185;42.320;23.198;2022-09-09T14:11:21;94695.06;;;24.78;88.78
63097;BME280;49185;42.320;23.198;2022-09-09T14:13:48;94688.53;;;24.70;88.88
63097;BME280;49185;42.320;23.198;2022-09-09T14:16:13;94693.28;;;24.75;88.33
63097;BME280;49185;42.320;23.198;2022-09-09T14:18:39;94678.50;;;24.67;84.50
63097;BME280;49185;42.320;23.198;2022-09-09T14:21:04;94678.19;;;24.33;92.13
63097;BME280;49185;42.320;23.198;2022-09-09T14:23:30;94666.63;;;24.55;83.94
63097;BME280;49185;42.320;23.198;2022-09-09T14:25:55;94670.84;;;24.50;85.79
63097;BME280;49185;42.320;23.198;2022-09-09T14:28:21;94663.47;;;24.36;85.38
63097;BME280;49185;42.320;23.198;2022-09-09T14:30:46;94669.88;;;24.28;83.97
63097;BME280;49185;42.320;23.198;2022-09-09T14:33:14;94663.50;;;24.42;85.41
63097;BME280;49185;42.320;23.198;2022-09-09T14:35:40;94666.81;;;24.46;84.93
63097;BME280;49185;42.320;23.198;2022-09-09T14:38:06;94652.38;;;24.51;83.48
63097;BME280;49185;42.320;23.198;2022-09-09T14:40:31;94653.69;;;24.61;80.27
63097;BME280;49185;42.320;23.198;2022-09-09T14:42:57;94653.47;;;24.65;77.58
63097;BME280;49185;42.320;23.198;2022-09-09T14:45:23;94649.75;;;24.16;82.46
63097;BME280;49185;42.320;23.198;2022-09-09T14:47:49;94655.88;;;24.05;83.01
63097;BME280;49185;42.320;23.198;2022-09-09T14:50:15;94663.25;;;24.19;84.22
63097;BME280;49185;42.320;23.198;2022-09-09T14:52:40;94660.69;;;24.10;83.88
63097;BME280;49185;42.320;23.198;2022-09-09T14:55:06;94658.59;;;23.79;81.69